createdAt,value
2022-10-14T04:20:38.702Z,100.00
2022-10-14T04:23:42.747Z,100.00
2022-10-14T04:26:45.620Z,100.00
2022-10-14T04:29:48.945Z,100.00
2022-10-14T04:32:52.008Z,100.00
2022-10-14T04:36:01.789Z,100.00
2022-10-14T04:39:05.928Z,100.00
2022-10-14T04:42:10.082Z,100.00
2022-10-14T04:45:12.888Z,100.00
2022-10-14T04:48:20.329Z,100.00
2022-10-14T04:51:22.824Z,100.00
2022-10-14T04:54:26.869Z,100.00
2022-10-14T04:57:33.075Z,100.00
2022-10-14T05:00:36.855Z,100.00
2022-10-14T05:03:39.590Z,100.00
2022-10-14T05:06:42.386Z,100.00
2022-10-14T05:09:49.626Z,100.00
2022-10-14T05:12:54.599Z,100.00
2022-10-14T05:15:57.414Z,100.00
2022-10-14T05:19:01.025Z,100.00
2022-10-14T05:22:04.001Z,100.00
2022-10-14T05:25:07.376Z,100.00
2022-10-14T05:28:09.987Z,100.00
2022-10-14T05:31:14.097Z,100.00
2022-10-14T05:34:18.316Z,100.00
2022-10-14T07:52:30.782Z,43.84
2022-10-14T07:55:34.626Z,40.22
2022-10-14T07:58:44.530Z,38.41
2022-10-14T08:32:22.073Z,37.64
2022-10-14T08:35:25.047Z,41.52
2022-10-14T08:38:29.069Z,50.44
2022-10-14T08:41:37.896Z,55.15
2022-10-14T08:44:57.977Z,54.38
2022-10-14T08:48:08.482Z,54.39
2022-10-14T08:51:14.323Z,55.75
2022-10-14T08:54:27.962Z,58.91
2022-10-14T08:57:49.287Z,62.05
2022-10-14T09:00:54.434Z,65.36
2022-10-14T09:03:59.513Z,64.80
2022-10-14T09:07:02.862Z,61.47
2022-10-14T09:10:14.694Z,62.50
2022-10-14T09:13:18.780Z,62.34
2022-10-14T09:16:33.150Z,63.31
2022-10-14T09:27:23.158Z,62.13
2022-10-14T09:30:30.462Z,61.44
2022-10-14T09:33:38.231Z,61.37
2022-10-14T09:36:44.791Z,61.62
2022-10-14T09:50:59.286Z,60.30
2022-10-14T09:54:04.687Z,59.28
2022-10-14T09:57:08.885Z,56.83
2022-10-14T10:00:28.507Z,56.90
2022-10-14T10:03:35.631Z,55.10
2022-10-14T10:06:53.099Z,59.01
2022-10-14T10:10:20.191Z,55.96
2022-10-14T10:13:31.715Z,53.53
2022-10-14T10:16:38.700Z,52.92
2022-10-14T10:19:51.478Z,52.67
2022-10-14T10:22:56.470Z,55.13
2022-10-14T10:26:18.652Z,54.33
2022-10-14T10:48:57.749Z,49.50
2022-10-14T10:52:16.200Z,50.01
2022-10-14T10:55:54.820Z,50.91
2022-10-14T10:59:03.641Z,46.77
2022-10-14T11:02:49.860Z,43.99
2022-10-14T13:09:18.783Z,56.78
2022-10-14T13:12:23.935Z,56.26
2022-10-14T13:15:35.945Z,54.66
2022-10-14T13:29:55.990Z,59.30
2022-10-14T13:33:15.462Z,58.24
2022-10-14T13:36:29.699Z,57.75
2022-10-14T13:51:24.007Z,59.88
2022-10-14T13:54:32.830Z,59.73
2022-10-14T13:58:07.554Z,59.32
2022-10-14T14:13:03.936Z,60.50
